createdAt,value
2023-12-30T00:00:33.335Z,5.44
2023-12-30T00:03:02.951Z,5.44
2023-12-30T00:05:31.135Z,5.39
2023-12-30T00:07:59.111Z,5.37
2023-12-30T00:10:27.157Z,5.40
2023-12-30T00:12:55.163Z,5.42
2023-12-30T00:15:23.140Z,5.40
2023-12-30T00:17:51.193Z,5.21
2023-12-30T00:20:20.643Z,4.99
2023-12-30T00:22:48.895Z,4.95
2023-12-30T00:25:17.666Z,4.97
2023-12-30T00:27:45.815Z,5.04
2023-12-30T00:30:14.991Z,5.04
2023-12-30T00:32:43.080Z,5.12
2023-12-30T00:35:11.490Z,5.15
2023-12-30T00:37:40.772Z,5.17
2023-12-30T00:40:09.733Z,5.15
2023-12-30T00:42:37.888Z,5.13
2023-12-30T00:45:07.927Z,5.09
2023-12-30T00:47:35.844Z,5.09
2023-12-30T00:50:03.917Z,5.13
2023-12-30T00:52:31.950Z,5.15
2023-12-30T00:55:01.366Z,5.18
2023-12-30T00:57:29.378Z,5.06
2023-12-30T00:59:57.422Z,5.04
2023-12-30T01:02:25.541Z,5.08
2023-12-30T01:04:53.857Z,5.12
2023-12-30T01:07:21.895Z,5.07
2023-12-30T01:09:49.820Z,5.09
2023-12-30T01:12:19.274Z,5.11
2023-12-30T01:14:47.346Z,5.03
2023-12-30T01:17:15.324Z,4.95
2023-12-30T01:19:43.558Z,4.78
2023-12-30T01:22:12.268Z,4.88
2023-12-30T01:24:40.257Z,4.82
2023-12-30T01:27:08.253Z,4.90
2023-12-30T01:29:37.553Z,4.73
2023-12-30T01:32:06.044Z,4.67
2023-12-30T01:34:34.100Z,4.73
2023-12-30T01:37:02.666Z,4.74
2023-12-30T01:39:30.649Z,4.53
2023-12-30T01:41:58.584Z,4.44
2023-12-30T01:44:26.629Z,4.57
2023-12-30T01:46:56.398Z,4.67
2023-12-30T01:49:24.205Z,4.73
2023-12-30T01:51:54.430Z,4.73
2023-12-30T01:54:23.437Z,4.83
2023-12-30T01:56:51.700Z,4.75
2023-12-30T01:59:20.951Z,4.82
2023-12-30T02:01:49.348Z,4.82
2023-12-30T02:04:19.210Z,4.91
2023-12-30T02:06:47.321Z,4.95
2023-12-30T02:09:15.572Z,4.95
2023-12-30T02:11:43.857Z,5.03
2023-12-30T02:14:24.695Z,5.09
2023-12-30T02:16:52.811Z,5.12
2023-12-30T02:19:22.397Z,5.12
2023-12-30T02:21:51.167Z,5.13
2023-12-30T02:24:21.036Z,5.10
2023-12-30T02:26:49.218Z,5.02
2023-12-30T02:29:17.275Z,4.97
2023-12-30T02:31:48.412Z,4.77
2023-12-30T02:34:17.357Z,4.67
2023-12-30T02:36:46.275Z,4.56
2023-12-30T02:39:14.576Z,4.57
2023-12-30T02:41:44.215Z,4.56
2023-12-30T02:44:12.331Z,4.50
2023-12-30T02:47:04.096Z,4.44
2023-12-30T02:49:41.086Z,4.50
2023-12-30T02:52:15.198Z,4.53
2023-12-30T02:54:43.165Z,4.55
2023-12-30T02:57:12.446Z,4.49
2023-12-30T02:59:40.339Z,4.50
2023-12-30T03:02:08.996Z,4.56
2023-12-30T03:04:37.078Z,4.51
2023-12-30T03:07:05.314Z,4.34
2023-12-30T03:09:33.242Z,4.22
2023-12-30T03:12:03.210Z,4.17
2023-12-30T03:14:32.624Z,4.11
2023-12-30T03:17:00.558Z,4.12
2023-12-30T03:19:28.597Z,4.19
2023-12-30T03:21:56.590Z,4.19
2023-12-30T03:24:24.535Z,4.25
2023-12-30T03:26:52.468Z,4.31
2023-12-30T03:29:21.082Z,4.42
2023-12-30T03:31:50.432Z,4.50
2023-12-30T03:34:18.497Z,4.60
2023-12-30T03:36:46.498Z,4.60
2023-12-30T03:39:15.210Z,4.61
2023-12-30T03:41:43.162Z,4.58
2023-12-30T03:44:12.102Z,4.60
2023-12-30T03:46:42.065Z,4.63
2023-12-30T03:49:11.449Z,4.67
2023-12-30T03:51:39.593Z,4.66
2023-12-30T03:54:07.541Z,4.66
2023-12-30T03:56:40.187Z,4.68
2023-12-30T03:59:08.150Z,4.67
2023-12-30T04:01:36.687Z,4.68
2023-12-30T04:04:05.229Z,4.64
2023-12-30T04:06:34.590Z,4.69
2023-12-30T04:09:02.572Z,4.69
2023-12-30T04:11:30.624Z,4.55
2023-12-30T04:13:58.757Z,4.51
2023-12-30T04:16:26.792Z,4.50
2023-12-30T04:18:55.026Z,4.48
2023-12-30T04:21:25.457Z,4.44
2023-12-30T04:23:54.736Z,4.37
2023-12-30T04:26:22.660Z,4.38
2023-12-30T04:28:50.752Z,4.32
2023-12-30T04:31:18.775Z,4.33
2023-12-30T04:33:46.901Z,4.38
2023-12-30T04:36:14.963Z,4.41
2023-12-30T04:38:44.938Z,4.42
2023-12-30T04:41:15.767Z,4.48
2023-12-30T04:43:43.747Z,4.43
2023-12-30T04:46:13.446Z,4.39
2023-12-30T04:48:41.641Z,4.34
2023-12-30T04:51:10.060Z,4.35
2023-12-30T04:53:38.088Z,4.30
2023-12-30T04:56:08.082Z,4.34
2023-12-30T04:58:37.398Z,4.37
2023-12-30T05:01:05.879Z,4.39
2023-12-30T05:03:33.991Z,4.43
2023-12-30T05:06:01.973Z,4.43
2023-12-30T05:08:30.216Z,4.38
2023-12-30T05:10:58.164Z,4.43
2023-12-30T05:13:26.236Z,4.42
2023-12-30T05:15:55.651Z,4.39
2023-12-30T05:18:23.650Z,4.36
2023-12-30T05:20:51.620Z,4.35
2023-12-30T05:23:19.515Z,4.36
2023-12-30T05:25:47.437Z,4.21
2023-12-30T05:28:15.651Z,3.82
2023-12-30T05:30:43.636Z,3.59
2023-12-30T05:33:13.223Z,3.37
2023-12-30T05:35:41.768Z,3.31
2023-12-30T05:38:13.477Z,3.29
2023-12-30T05:40:41.777Z,3.28
2023-12-30T05:43:09.712Z,3.02
2023-12-30T05:45:37.712Z,2.94
2023-12-30T05:48:06.336Z,3.05
2023-12-30T05:50:35.650Z,2.90
2023-12-30T05:53:04.102Z,2.78
2023-12-30T05:55:32.280Z,3.11
2023-12-30T05:58:00.275Z,3.26
2023-12-30T06:00:28.171Z,3.36
2023-12-30T06:02:56.093Z,3.42
2023-12-30T06:05:24.016Z,3.62
2023-12-30T06:07:53.362Z,3.74
2023-12-30T06:10:21.953Z,3.79
2023-12-30T06:12:49.848Z,3.89
2023-12-30T06:15:17.735Z,3.94
2023-12-30T06:17:45.726Z,3.99
2023-12-30T06:20:13.750Z,4.03
2023-12-30T06:22:41.675Z,4.05
2023-12-30T06:25:11.216Z,4.05
2023-12-30T06:27:39.138Z,4.10
2023-12-30T06:30:08.987Z,4.13
2023-12-30T06:32:37.050Z,4.11
2023-12-30T06:35:05.422Z,3.96
2023-12-30T06:37:33.400Z,3.93
2023-12-30T06:40:01.344Z,3.94
2023-12-30T06:42:30.707Z,4.02
2023-12-30T06:44:58.792Z,4.03
2023-12-30T06:47:26.814Z,4.05
2023-12-30T06:49:54.797Z,4.12
2023-12-30T06:52:24.655Z,4.16
2023-12-30T06:55:02.625Z,4.18
2023-12-30T06:57:39.985Z,4.19
2023-12-30T07:00:09.214Z,4.19
2023-12-30T07:02:37.179Z,4.11
2023-12-30T07:05:05.763Z,4.13
2023-12-30T07:07:33.909Z,4.10
2023-12-30T07:10:01.854Z,4.05
2023-12-30T07:12:29.858Z,3.96
2023-12-30T07:14:59.671Z,3.92
2023-12-30T07:17:28.186Z,3.96
2023-12-30T07:19:56.958Z,4.01
2023-12-30T07:22:25.873Z,4.11
2023-12-30T07:24:53.939Z,4.10
2023-12-30T07:27:21.848Z,4.15
2023-12-30T07:29:49.773Z,4.15
2023-12-30T07:32:19.144Z,4.20
2023-12-30T07:34:47.212Z,4.17
2023-12-30T07:37:15.247Z,4.15
2023-12-30T07:39:43.553Z,4.18
2023-12-30T07:42:11.440Z,4.23
2023-12-30T07:44:39.697Z,4.29
2023-12-30T07:47:08.254Z,4.38
2023-12-30T07:49:38.066Z,4.46
2023-12-30T07:52:06.731Z,4.52
2023-12-30T07:54:34.735Z,4.53
2023-12-30T07:57:02.731Z,4.48
2023-12-30T07:59:30.599Z,4.46
2023-12-30T08:01:58.629Z,4.48
2023-12-30T08:04:26.825Z,4.45
2023-12-30T08:06:56.143Z,4.47
2023-12-30T08:09:24.558Z,4.53
2023-12-30T08:11:59.532Z,4.60
2023-12-30T08:14:30.959Z,4.68
2023-12-30T08:16:59.924Z,4.70
2023-12-30T08:19:28.043Z,4.72
2023-12-30T08:21:58.315Z,4.77
2023-12-30T08:24:29.350Z,4.80
2023-12-30T08:27:00.472Z,4.84
2023-12-30T08:29:28.371Z,4.90
2023-12-30T08:31:56.375Z,4.95
2023-12-30T08:34:29.107Z,5.00
2023-12-30T08:36:58.588Z,4.98
2023-12-30T08:39:26.578Z,5.07
2023-12-30T08:41:54.527Z,5.12
2023-12-30T08:44:22.433Z,5.13
2023-12-30T08:46:50.441Z,5.08
2023-12-30T08:49:18.612Z,5.04
2023-12-30T08:51:46.669Z,5.08
2023-12-30T08:54:15.923Z,5.09
2023-12-30T08:56:43.901Z,5.12
2023-12-30T08:59:11.829Z,5.14
2023-12-30T09:01:40.043Z,5.12
2023-12-30T09:04:08.282Z,5.15
2023-12-30T09:06:36.350Z,5.15
2023-12-30T09:09:05.540Z,5.16
2023-12-30T09:11:38.816Z,5.06
2023-12-30T09:14:07.473Z,5.10
2023-12-30T09:16:36.294Z,5.13
2023-12-30T09:19:05.173Z,5.15
2023-12-30T09:21:33.274Z,5.14
2023-12-30T09:24:01.278Z,5.10
2023-12-30T09:26:29.424Z,5.12
2023-12-30T09:28:58.755Z,5.14
2023-12-30T09:31:28.142Z,5.17
2023-12-30T09:33:55.170Z,5.23
2023-12-30T09:36:23.120Z,5.27
2023-12-30T09:38:51.094Z,5.29
2023-12-30T09:41:22.537Z,5.33
2023-12-30T09:43:51.895Z,5.35
2023-12-30T09:46:23.080Z,5.37
2023-12-30T09:48:52.244Z,5.27
2023-12-30T09:51:20.310Z,5.44
2023-12-30T09:53:48.312Z,5.46
2023-12-30T09:56:17.452Z,5.50
2023-12-30T09:58:46.290Z,5.49
2023-12-30T10:01:14.565Z,5.52
2023-12-30T10:03:45.144Z,5.51
2023-12-30T10:06:15.410Z,5.42
2023-12-30T10:08:44.079Z,5.45
2023-12-30T10:11:12.921Z,5.53
2023-12-30T10:13:41.081Z,5.63
2023-12-30T10:16:09.812Z,5.71
2023-12-30T10:18:38.901Z,5.73
2023-12-30T10:21:09.413Z,5.68
2023-12-30T10:23:39.086Z,5.76
2023-12-30T10:26:06.976Z,5.73
2023-12-30T10:28:35.139Z,5.74
2023-12-30T10:31:04.090Z,5.69
2023-12-30T10:33:33.955Z,5.53
2023-12-30T10:36:02.049Z,5.60
2023-12-30T10:38:31.549Z,5.66
2023-12-30T10:40:59.736Z,5.71
2023-12-30T10:43:27.597Z,5.73
2023-12-30T10:45:59.231Z,5.77
2023-12-30T10:48:32.856Z,5.80
2023-12-30T10:51:02.195Z,5.84
2023-12-30T10:53:33.975Z,5.89
2023-12-30T10:56:02.964Z,5.93
2023-12-30T10:58:34.481Z,5.98
2023-12-30T11:01:04.762Z,6.00
2023-12-30T11:03:34.075Z,6.00
2023-12-30T11:06:08.583Z,6.01
2023-12-30T11:08:42.961Z,6.01
2023-12-30T11:11:13.815Z,6.12
2023-12-30T11:13:44.016Z,6.21
2023-12-30T11:16:16.505Z,6.33
2023-12-30T11:18:50.882Z,6.41
2023-12-30T11:21:35.164Z,6.49
2023-12-30T11:24:07.187Z,6.51
2023-12-30T11:26:36.568Z,6.53
2023-12-30T11:29:05.458Z,6.52
2023-12-30T11:31:34.436Z,6.46
2023-12-30T11:34:02.933Z,6.41
2023-12-30T11:36:31.238Z,6.46
2023-12-30T11:39:00.740Z,6.52
2023-12-30T11:41:31.958Z,6.51
2023-12-30T11:44:03.385Z,6.51
2023-12-30T11:46:32.633Z,6.46
2023-12-30T11:49:01.826Z,6.44
2023-12-30T11:51:31.389Z,6.50
2023-12-30T11:54:02.696Z,6.50
2023-12-30T11:56:32.280Z,6.49
2023-12-30T11:59:01.219Z,6.53
2023-12-30T12:01:29.395Z,6.53
2023-12-30T12:03:57.661Z,6.52
2023-12-30T12:06:25.967Z,6.54
2023-12-30T12:08:53.953Z,6.55
2023-12-30T12:11:21.896Z,6.58
2023-12-30T12:13:57.878Z,6.60
2023-12-30T12:16:27.076Z,6.56
2023-12-30T12:18:55.530Z,6.54
2023-12-30T12:21:23.609Z,6.66
2023-12-30T12:23:51.640Z,6.65
2023-12-30T12:26:19.636Z,6.72
2023-12-30T12:28:47.560Z,6.74
2023-12-30T12:31:20.596Z,6.78
2023-12-30T12:33:48.652Z,6.80
2023-12-30T12:36:18.877Z,6.83
2023-12-30T12:38:47.171Z,6.86
2023-12-30T12:41:15.085Z,6.90
2023-12-30T12:43:43.376Z,6.94
2023-12-30T12:46:12.329Z,6.98
2023-12-30T12:48:41.808Z,7.02
2023-12-30T12:51:09.743Z,7.05
2023-12-30T12:53:38.286Z,7.10
2023-12-30T12:56:06.308Z,7.14
2023-12-30T12:58:34.315Z,7.18
2023-12-30T13:01:04.613Z,7.23
2023-12-30T13:03:32.750Z,7.27
2023-12-30T13:06:13.880Z,7.32
2023-12-30T13:08:42.650Z,7.37
2023-12-30T13:11:10.568Z,7.41
2023-12-30T13:13:38.570Z,7.43
2023-12-30T13:16:07.727Z,7.48
2023-12-30T13:18:35.812Z,7.54
2023-12-30T13:21:07.452Z,7.59
2023-12-30T13:23:35.403Z,7.64
2023-12-30T13:26:05.137Z,7.69
2023-12-30T13:28:33.340Z,7.73
2023-12-30T13:31:01.353Z,7.78
2023-12-30T13:33:29.531Z,7.80
2023-12-30T13:35:57.407Z,7.87
2023-12-30T13:38:28.911Z,7.93
2023-12-30T13:41:01.288Z,7.98
2023-12-30T13:43:29.442Z,7.98
2023-12-30T13:46:12.684Z,8.09
2023-12-30T13:48:54.660Z,8.13
2023-12-30T13:51:22.600Z,8.13
2023-12-30T13:53:53.861Z,8.21
2023-12-30T13:56:26.163Z,8.25
2023-12-30T13:58:58.038Z,8.26
2023-12-30T14:01:26.888Z,8.29
2023-12-30T14:03:57.083Z,8.27
2023-12-30T14:06:33.346Z,8.33
2023-12-30T14:09:19.222Z,8.36
2023-12-30T14:11:50.729Z,8.38
2023-12-30T14:14:18.812Z,8.41
2023-12-30T14:16:46.980Z,8.44
2023-12-30T14:19:17.160Z,8.46
2023-12-30T14:21:45.273Z,8.49
2023-12-30T14:24:17.174Z,8.54
2023-12-30T14:26:45.185Z,8.55
2023-12-30T14:29:13.119Z,8.57
2023-12-30T14:31:41.192Z,8.52
2023-12-30T14:34:10.736Z,8.50
2023-12-30T14:36:39.206Z,8.45
2023-12-30T14:39:10.098Z,8.40
2023-12-30T14:41:41.112Z,8.36
2023-12-30T14:44:09.279Z,8.29
2023-12-30T14:46:37.420Z,8.23
2023-12-30T14:49:05.406Z,8.20
2023-12-30T14:51:33.700Z,8.12
2023-12-30T14:54:01.569Z,8.02
2023-12-30T14:56:29.528Z,7.94
2023-12-30T14:58:59.165Z,7.87
2023-12-30T15:01:27.262Z,7.79
2023-12-30T15:03:59.581Z,7.72
2023-12-30T15:06:30.028Z,7.67
2023-12-30T15:08:59.755Z,7.60
2023-12-30T15:11:28.606Z,7.56
2023-12-30T15:13:58.551Z,7.52
2023-12-30T15:16:26.484Z,7.50
2023-12-30T15:18:54.457Z,7.48
2023-12-30T15:21:22.779Z,7.44
2023-12-30T15:23:50.920Z,7.42
2023-12-30T15:26:18.915Z,7.33
2023-12-30T15:28:46.839Z,7.35
2023-12-30T15:31:16.584Z,7.30
2023-12-30T15:33:44.678Z,7.27
2023-12-30T15:36:12.913Z,7.22
2023-12-30T15:38:40.955Z,7.18
2023-12-30T15:41:08.883Z,7.15
2023-12-30T15:43:37.344Z,7.13
2023-12-30T15:46:08.576Z,7.12
2023-12-30T15:48:39.674Z,7.07
2023-12-30T15:51:08.285Z,7.09
2023-12-30T15:53:36.551Z,7.09
2023-12-30T15:56:04.893Z,7.10
2023-12-30T15:58:32.956Z,7.10
2023-12-30T16:01:00.952Z,7.10
2023-12-30T16:03:28.945Z,7.10
2023-12-30T16:05:58.479Z,7.10
2023-12-30T16:08:27.365Z,7.07
2023-12-30T16:10:56.525Z,7.08
2023-12-30T16:13:24.486Z,7.07
2023-12-30T16:15:54.007Z,7.06
2023-12-30T16:18:22.139Z,6.99
2023-12-30T16:20:50.083Z,7.04
2023-12-30T16:23:19.487Z,7.02
2023-12-30T16:25:48.505Z,7.00
2023-12-30T16:28:17.324Z,6.98
2023-12-30T16:30:45.421Z,6.93
2023-12-30T16:33:13.548Z,6.90
2023-12-30T16:35:41.700Z,6.87
2023-12-30T16:38:09.657Z,6.88
2023-12-30T16:40:39.866Z,6.84
2023-12-30T16:43:08.235Z,6.82
2023-12-30T16:45:36.857Z,6.82
2023-12-30T16:48:05.486Z,6.79
2023-12-30T16:50:33.528Z,6.73
2023-12-30T16:53:05.221Z,6.74
2023-12-30T16:55:33.664Z,6.74
2023-12-30T16:58:03.225Z,6.73
2023-12-30T17:00:31.370Z,6.74
2023-12-30T17:02:59.506Z,6.74
2023-12-30T17:05:27.720Z,6.67
2023-12-30T17:07:55.616Z,6.54
2023-12-30T17:10:23.591Z,6.51
2023-12-30T17:12:51.581Z,6.57
2023-12-30T17:15:20.914Z,6.58
2023-12-30T17:17:48.959Z,6.56
2023-12-30T17:20:17.040Z,6.59
2023-12-30T17:22:45.013Z,6.54
2023-12-30T17:25:14.856Z,6.37
2023-12-30T17:27:42.891Z,6.33
2023-12-30T17:30:11.352Z,6.27
2023-12-30T17:32:40.690Z,6.19
2023-12-30T17:35:09.778Z,6.15
2023-12-30T17:37:38.244Z,6.14
2023-12-30T17:40:06.969Z,6.12
2023-12-30T17:42:36.073Z,6.12
2023-12-30T17:45:04.462Z,6.02
2023-12-30T17:47:34.674Z,5.95
2023-12-30T17:50:08.192Z,5.80
2023-12-30T17:52:36.583Z,5.80
2023-12-30T17:55:05.897Z,5.84
2023-12-30T17:57:34.032Z,5.79
2023-12-30T18:00:02.025Z,5.85
2023-12-30T18:02:33.456Z,5.90
2023-12-30T18:05:01.751Z,5.94
2023-12-30T18:07:31.237Z,5.97
2023-12-30T18:09:59.221Z,5.94
2023-12-30T18:12:29.084Z,5.93
2023-12-30T18:14:56.973Z,5.89
2023-12-30T18:17:24.883Z,5.83
2023-12-30T18:19:52.894Z,5.74
2023-12-30T18:22:20.914Z,5.69
2023-12-30T18:24:50.294Z,5.55
2023-12-30T18:27:18.321Z,5.59
2023-12-30T18:29:46.778Z,5.55
2023-12-30T18:32:14.651Z,5.55
2023-12-30T18:34:42.705Z,5.51
2023-12-30T18:37:15.892Z,5.60
2023-12-30T18:39:44.028Z,5.61
2023-12-30T18:42:13.321Z,5.63
2023-12-30T18:44:41.274Z,5.57
2023-12-30T18:47:09.150Z,5.50
2023-12-30T18:49:37.171Z,5.52
2023-12-30T18:52:05.577Z,5.52
2023-12-30T18:54:33.550Z,5.51
2023-12-30T18:57:01.453Z,5.54
2023-12-30T18:59:30.740Z,5.48
2023-12-30T19:02:01.344Z,5.48
2023-12-30T19:04:31.991Z,5.40
2023-12-30T19:07:00.823Z,5.37
2023-12-30T19:09:28.719Z,5.28
2023-12-30T19:11:56.960Z,5.29
2023-12-30T19:14:24.868Z,5.35
2023-12-30T19:16:54.237Z,5.33
2023-12-30T19:19:22.214Z,5.37
2023-12-30T19:21:50.174Z,5.43
2023-12-30T19:24:18.303Z,5.47
2023-12-30T19:26:46.604Z,5.61
2023-12-30T19:29:14.622Z,5.63
2023-12-30T19:31:43.091Z,5.65
2023-12-30T19:34:12.420Z,5.60
2023-12-30T19:36:40.855Z,5.56
2023-12-30T19:39:09.498Z,5.52
2023-12-30T19:41:38.366Z,5.39
2023-12-30T19:44:07.425Z,5.19
2023-12-30T19:46:35.807Z,5.22
2023-12-30T19:49:05.659Z,5.27
2023-12-30T19:51:35.283Z,5.32
2023-12-30T19:54:03.881Z,5.36
2023-12-30T19:56:31.940Z,5.41
2023-12-30T19:58:59.866Z,5.42
2023-12-30T20:01:27.924Z,5.44
2023-12-30T20:03:55.982Z,5.45
2023-12-30T20:06:23.959Z,5.48
2023-12-30T20:08:53.256Z,5.47
2023-12-30T20:11:22.388Z,5.48
2023-12-30T20:13:51.133Z,5.49
2023-12-30T20:16:19.140Z,5.45
2023-12-30T20:18:47.220Z,5.33
2023-12-30T20:21:15.889Z,5.23
2023-12-30T20:23:43.828Z,5.22
2023-12-30T20:26:13.093Z,5.25
2023-12-30T20:28:41.143Z,5.27
2023-12-30T20:31:09.495Z,5.22
2023-12-30T20:33:38.083Z,5.12
2023-12-30T20:36:07.045Z,5.02
2023-12-30T20:38:35.741Z,4.95
2023-12-30T20:41:03.834Z,4.99
2023-12-30T20:43:33.227Z,4.99
2023-12-30T20:46:01.424Z,4.96
2023-12-30T20:48:29.602Z,5.04
2023-12-30T20:50:57.619Z,5.07
2023-12-30T20:53:25.594Z,5.06
2023-12-30T20:55:53.508Z,5.11
2023-12-30T20:58:21.532Z,5.08
2023-12-30T21:00:50.830Z,5.06
2023-12-30T21:03:18.789Z,4.85
2023-12-30T21:05:46.801Z,4.66
2023-12-30T21:08:14.742Z,4.57
2023-12-30T21:10:42.939Z,4.68
2023-12-30T21:13:10.979Z,4.69
2023-12-30T21:15:39.076Z,4.72
2023-12-30T21:18:10.846Z,4.78
2023-12-30T21:20:38.942Z,4.81
2023-12-30T21:23:07.217Z,4.83
2023-12-30T21:25:35.239Z,4.83
2023-12-30T21:28:05.892Z,4.85
2023-12-30T21:30:34.164Z,4.76
2023-12-30T21:33:02.448Z,4.78
2023-12-30T21:35:32.564Z,4.78
2023-12-30T21:38:00.548Z,4.75
2023-12-30T21:40:29.442Z,4.71
2023-12-30T21:42:57.433Z,4.69
2023-12-30T21:45:25.320Z,4.68
2023-12-30T21:47:53.382Z,4.65
2023-12-30T21:50:21.468Z,4.61
2023-12-30T21:52:52.937Z,4.57
2023-12-30T21:55:21.280Z,4.57
2023-12-30T21:57:49.873Z,4.57
2023-12-30T22:00:18.225Z,4.57
2023-12-30T22:02:47.496Z,4.54
2023-12-30T22:05:18.650Z,4.56
2023-12-30T22:07:46.646Z,4.46
2023-12-30T22:10:16.724Z,4.48
2023-12-30T22:12:43.716Z,4.54
2023-12-30T22:15:11.569Z,4.52
2023-12-30T22:17:39.784Z,4.51
2023-12-30T22:20:09.576Z,4.45
2023-12-30T22:22:38.014Z,4.44
2023-12-30T22:25:06.419Z,4.30
2023-12-30T22:27:36.527Z,4.41
2023-12-30T22:30:04.866Z,4.47
2023-12-30T22:32:32.994Z,4.46
2023-12-30T22:35:05.155Z,4.51
2023-12-30T22:37:33.709Z,4.48
2023-12-30T22:40:01.583Z,4.48
2023-12-30T22:42:29.466Z,4.47
2023-12-30T22:44:58.777Z,4.43
2023-12-30T22:47:26.777Z,4.42
2023-12-30T22:49:54.708Z,4.38
2023-12-30T22:52:22.671Z,4.37
2023-12-30T22:54:50.568Z,4.31
2023-12-30T22:57:18.512Z,4.27
2023-12-30T22:59:46.381Z,4.20
2023-12-30T23:02:15.660Z,4.07
2023-12-30T23:04:43.706Z,4.07
2023-12-30T23:07:11.961Z,4.10
2023-12-30T23:09:40.064Z,3.99
2023-12-30T23:12:08.286Z,3.89
2023-12-30T23:14:36.193Z,3.99
2023-12-30T23:17:04.350Z,3.99
2023-12-30T23:19:33.913Z,3.90
2023-12-30T23:22:01.954Z,4.02
2023-12-30T23:24:29.925Z,4.06
2023-12-30T23:26:57.932Z,4.12
2023-12-30T23:29:27.006Z,4.13
2023-12-30T23:31:55.639Z,4.03
2023-12-30T23:34:24.951Z,3.96
2023-12-30T23:36:57.528Z,3.99
2023-12-30T23:39:26.175Z,4.08
2023-12-30T23:41:54.112Z,4.09
2023-12-30T23:44:22.019Z,4.14
2023-12-30T23:46:50.002Z,4.12
2023-12-30T23:49:18.513Z,4.01
2023-12-30T23:51:46.573Z,4.02
2023-12-30T23:54:15.905Z,3.89
2023-12-30T23:56:44.313Z,3.90
2023-12-30T23:59:14.087Z,3.93
